Aeroporto :
LOGIN :

Iscrizione | Disclaimer

   EN    FR    IT 

 










Sommario :    VFR   VFR Marginale   IFR   IFR Intensivo   IFR Molto Intensivo
Visibilità : 
Base nubi : 
>= 8 km
>= 3000ft
5 / 8 km
1000 / 3000 ft
1500m / 5 km
500 / 1000 ft
800 / 1500m
200 / 500 ft
< 800m
< 200 ft
Simboli :   Temporali  Nebbia  Neve Forte  Precipitazioni Forti  Vento > 20 kt
SIGMETs :   Varie  Temporali  Ghiacco  Turbolenza  Onda orograficha  Ceneri Vulcaniche






- Altitudine del aeroporto : 147 ft
- Codice IATA : DUS


EDDL - Düsseldorf Int.

ULTIMO METAR :
  • 181350Z AUTO VRB04KT CAVOK 30/11 Q1020 NOSIG

METARs OBSOLETI :
  • 181320Z AUTO 19008KT 120V260 CAVOK 30/11 Q1020 NOSIG
  • 181250Z AUTO 15005KT 110V250 CAVOK 29/12 Q1020 NOSIG
  • 181220Z AUTO VRB04KT 9999 FEW001 29/12 Q1020 NOSIG
  • 181150Z AUTO 21007KT 150V260 CAVOK 29/13 Q1020 NOSIG
  • 181120Z AUTO 20006KT 140V270 CAVOK 29/12 Q1020 NOSIG

TAF TAF EDDL
Valido dal 18 a 12 ore il 19 a 18 ore UTC


181100Z 1812/1918 24004KT CAVOK
BECMG 1815/1818 35005KT
PROB30
TEMPO 1815/1818 SHRA SCT040CB
BECMG 1820/1822 09004KT
BECMG 1823/1902 16012KT
BECMG 1911/1914 24010KT
TEMPO 1912/1918 24020G35KT TSRA SCT030CB
PROB30
TEMPO 1913/1917 24030G50KT 1500 +TSGRRA BKN015CB



MetMap, La meteo Aeronautica in un colpo d'occhio ! - Copyright ORBIFLY Dicembre 2007 - Disclaimer

ORBIFLY MET'MAP TEAM :

Programmazione e sviluppo : Alexandra Zaïnal
Concezione : Baudouin d'Aumeries
Supporto tecnico e logistico : Manuel Goepfert
Aiuto : Marc-Olivier Méhu
Aiuto per la traduzione : Arnaldo La Scala

Contatto : metmap@orbifly.com




FONTI E CREDITI :

   NOAA